Decoded Metar for LDRI (RIJEKA in CROATIA) (IATA:RJK) | Meteo·Mobile Aviation Weather
aviador You're here:

LDRI Decoded Metar

RIJEKA in CROATIA
Report Time2019-07-16 22:00:00
UTC Time2019-07-16 22:19:25
Flight Rules vfr VFR
Wind340° at 01 kt
W.Decomp.*RWY 32: 1.0 kt HW 0.3 kt RCW
Visibility9999 m
Phenomena:N/A
Clouds:N/A
Expected CloudBase > 3,200 ft AGL from Temp-Dew spread
CeilingNone
Temp20°C (ISA +6)
Dew Point12°C (60% RH)
QNH1013 hPa
Density Alt1,119 ft
Elevation279 ft
Report Wrong Elevation
Raw Report
LDRI 162200Z 34001KT CAVOK 20/12 Q1013=

Extra information for LDRI:More info

Metar Taf Metar & Taf Last 4 Metars F.Rules Stats Wind Profile Meteogram Temp Stats Airport Information Weather charts Add Link Nearby VenuesMetar ALERT Operation Metar Decoded Social comments